KWAL/WAL METAR and TAF weather

Enter ICAO airport designator
Station Type Date Time Source
KWAL METAR 2020/09/20 08:54 UTC NOAA

KWAL 200854Z AUTO 35006KT 10SM BKN050 11/06 A3034 RMK AO2 SLP271 T01060056 53002


Station Type Date Time Source
KWAL Decoded METAR 2020/09/20 08:54 UTC NOAA

WALLOPS FLIGHT FAC AIRPORT , VA, United States (KWAL) 37-56N 075-28W 14M
Sep 20, 2020 - 04:54 AM EDT / 2020.09.20 0854 UTC
Wind: from the N (350 degrees) at 7 MPH (6 KT):0
Visibility: 10 mile(s):0
Sky conditions: mostly cloudy
Temperature: 51.1 F (10.6 C)
Dew Point: 42.1 F (5.6 C)
Relative Humidity: 71%
Pressure (altimeter): 30.34 in. Hg (1027 hPa)
Pressure tendency: 0.01 inches (0.2 hPa) higher than three hours ago
ob: KWAL 200854Z AUTO 35006KT 10SM BKN050 11/06 A3034 RMK AO2 SLP271 T01060056 53002
cycle: 9

Station Type Date Time Source
KWAL TAF UTC NOAA

Error!

Example: see airport list